Time;durP1;ratioP1;P1;durP2;ratioP2;P2;SDS_P1;SDS_P2;PMS_P1;PMS_P2;Temp;Humidity;BMP_temperature;BMP_pressure;BME280_temperature;BME280_humidity;BME280_pressure;Samples;Min_cycle;Max_cycle;Signal;HPM_P1;HPM_P2
2022/05/10 00:03:02;;;;;;;6.63;4.40;;;;;;;11.11;100.00;100745.88;4237908;22;9999938;-68
2022/05/10 00:05:35;;;;;;;6.43;3.90;;;;;;;10.84;100.00;100742.09;5050233;28;20037;-68
2022/05/10 00:08:03;;;;;;;6.97;3.80;;;;;;;10.75;100.00;100751.56;5050063;28;20029;-67
2022/05/10 00:10:28;;;;;;;6.40;4.05;;;;;;;11.23;100.00;100743.91;5049945;28;20470;-68
2022/05/10 00:12:54;;;;;;;8.75;4.20;;;;;;;11.19;100.00;100732.13;5050014;28;20064;-65
2022/05/10 00:15:19;;;;;;;7.72;4.38;;;;;;;11.40;100.00;100737.69;5049822;28;20935;-68
2022/05/10 00:17:47;;;;;;;9.38;4.20;;;;;;;11.44;100.00;100734.22;5048908;28;20033;-68
2022/05/10 00:20:17;;;;;;;7.05;4.05;;;;;;;11.14;100.00;100705.94;5049008;28;20032;-68
2022/05/10 00:22:43;;;;;;;8.85;4.40;;;;;;;10.73;100.00;100735.50;5045658;28;20035;-69
2022/05/10 00:25:12;;;;;;;6.18;4.55;;;;;;;11.02;100.00;100729.06;5047095;28;20039;-68
2022/05/10 00:27:37;;;;;;;7.45;4.80;;;;;;;10.61;100.00;100700.94;5031377;28;20030;-67
2022/05/10 00:30:04;;;;;;;6.70;4.60;;;;;;;10.51;100.00;100699.41;5048764;28;20025;-67
2022/05/10 00:32:33;;;;;;;7.72;4.78;;;;;;;10.92;100.00;100714.81;5050003;28;20056;-68
2022/05/10 00:34:59;;;;;;;10.50;5.15;;;;;;;11.05;100.00;100720.53;5049909;28;20037;-67
2022/05/10 00:37:24;;;;;;;8.75;5.47;;;;;;;10.80;100.00;100716.72;5049898;28;20033;-67
2022/05/10 00:39:50;;;;;;;9.30;5.13;;;;;;;10.15;100.00;100695.75;5040087;28;20029;-67
2022/05/10 00:42:27;;;;;;;7.95;4.95;;;;;;;10.51;100.00;100712.13;5029578;28;20034;-68
2022/05/10 00:45:07;;;;;;;8.55;4.60;;;;;;;10.29;100.00;100723.47;5045262;28;20087;-68
2022/05/10 00:47:45;;;;;;;10.40;4.95;;;;;;;10.43;100.00;100698.69;5045219;28;20029;-68
2022/05/10 00:50:15;;;;;;;8.32;5.50;;;;;;;9.77;100.00;100728.41;5030197;28;20034;-68
2022/05/10 00:52:51;;;;;;;10.60;5.43;;;;;;;10.07;100.00;100667.03;5028146;28;20461;-68
2022/05/10 00:55:19;;;;;;;7.53;5.07;;;;;;;9.91;100.00;100725.69;5029968;28;20026;-68
2022/05/10 00:57:51;;;;;;;8.32;5.00;;;;;;;10.13;100.00;100733.03;5029609;28;20055;-68
2022/05/10 01:00:21;;;;;;;9.65;5.03;;;;;;;9.88;100.00;100718.97;5029854;28;20025;-68
2022/05/10 01:02:46;;;;;;;9.50;4.63;;;;;;;10.04;100.00;100720.41;5029598;28;20069;-68
2022/05/10 01:05:23;;;;;;;8.48;4.90;;;;;;;9.77;100.00;100699.63;5029527;28;20069;-68
2022/05/10 01:08:16;;;;;;;9.93;4.70;;;;;;;9.29;100.00;100713.78;5033048;28;20436;-67
2022/05/10 01:11:05;;;;;;;7.82;4.45;;;;;;;9.75;100.00;100717.41;5033332;28;20033;-68
2022/05/10 01:13:32;;;;;;;7.53;4.50;;;;;;;9.09;100.00;100691.13;5032926;28;20033;-68
2022/05/10 01:16:05;;;;;;;6.78;4.30;;;;;;;10.31;100.00;100702.28;5032159;28;20034;-68
2022/05/10 01:18:31;;;;;;;7.53;4.70;;;;;;;9.76;100.00;100670.88;5032966;28;20061;-68
2022/05/10 01:21:11;;;;;;;6.22;4.72;;;;;;;9.66;100.00;100694.69;5033168;28;20486;-68
2022/05/10 01:23:52;;;;;;;9.10;4.70;;;;;;;9.76;100.00;100700.50;5032891;28;20033;-68
2022/05/10 01:26:36;;;;;;;9.15;4.53;;;;;;;9.40;100.00;100696.72;5032813;28;20040;-68
2022/05/10 01:29:12;;;;;;;7.68;4.88;;;;;;;9.54;100.00;100669.47;5033166;28;20040;-68
2022/05/10 01:31:45;;;;;;;8.15;4.88;;;;;;;9.33;100.00;100682.44;5032747;28;20026;-67
2022/05/10 01:34:16;;;;;;;8.45;5.15;;;;;;;9.63;100.00;100660.91;5032756;28;20033;-68
2022/05/10 01:36:52;;;;;;;5.32;3.25;;;;;;;9.89;100.00;100684.22;5051486;28;20029;-68
2022/05/10 01:39:30;;;;;;;8.68;5.50;;;;;;;9.28;100.00;100662.19;5052484;28;20048;-67
2022/05/10 01:42:08;;;;;;;9.38;5.18;;;;;;;9.78;100.00;100683.53;5052739;28;20025;-68
2022/05/10 01:44:43;;;;;;;9.00;4.97;;;;;;;9.63;100.00;100682.03;5052429;28;20017;-67
2022/05/10 01:47:33;;;;;;;7.30;4.80;;;;;;;10.07;100.00;100672.09;5051161;28;20040;-67
2022/05/10 01:50:02;;;;;;;6.55;4.60;;;;;;;9.55;100.00;100676.22;5051283;28;20051;-68
2022/05/10 01:52:51;;;;;;;8.82;4.82;;;;;;;9.99;100.00;100673.91;5052342;28;20091;-68
2022/05/10 01:55:19;;;;;;;7.53;4.68;;;;;;;10.09;100.00;100669.53;5030874;28;20049;-67
2022/05/10 01:57:44;;;;;;;9.90;4.93;;;;;;;9.54;100.00;100674.53;5052234;28;20033;-68
2022/05/10 02:00:10;;;;;;;10.82;4.65;;;;;;;9.92;100.00;100672.34;5052419;28;20032;-68
2022/05/10 02:02:41;;;;;;;9.82;5.30;;;;;;;9.66;100.00;100658.31;5052264;28;20548;-69
2022/05/10 02:05:14;;;;;;;11.55;4.85;;;;;;;9.89;100.00;100651.22;5052232;28;20025;-68
2022/05/10 02:07:43;;;;;;;9.43;4.80;;;;;;;9.17;100.00;100681.72;5052089;28;20032;-68
2022/05/10 02:10:18;;;;;;;6.05;4.20;;;;;;;8.34;100.00;100695.19;5052019;28;20021;-68
2022/05/10 02:12:55;;;;;;;7.85;4.57;;;;;;;8.30;100.00;100692.72;5052082;28;20025;-67
2022/05/10 02:15:38;;;;;;;6.22;4.43;;;;;;;8.15;100.00;100693.63;5051907;28;20029;-68
2022/05/10 02:18:18;;;;;;;8.48;4.18;;;;;;;8.12;100.00;100678.44;5051627;28;20459;-67
2022/05/10 02:20:52;;;;;;;7.80;5.28;;;;;;;8.32;100.00;100675.81;5051832;28;20490;-68
2022/05/10 02:23:41;;;;;;;8.73;5.22;;;;;;;8.28;100.00;100648.81;5051585;28;20087;-69
2022/05/10 02:26:11;;;;;;;8.88;5.45;;;;;;;8.13;100.00;100667.47;5050495;28;20481;-67
2022/05/10 02:28:44;;;;;;;8.02;5.07;;;;;;;8.29;100.00;100664.00;5051503;28;20036;-68
2022/05/10 02:31:27;;;;;;;7.03;5.20;;;;;;;8.10;100.00;100672.53;5052067;28;20025;-68
2022/05/10 02:33:54;;;;;;;9.05;5.05;;;;;;;8.18;100.00;100640.41;5051495;28;20033;-68
2022/05/10 02:36:20;;;;;;;7.80;5.25;;;;;;;8.15;100.00;100655.63;5051505;28;20032;-68
2022/05/10 02:38:46;;;;;;;7.72;5.07;;;;;;;8.86;100.00;100629.69;5051562;28;20029;-68
2022/05/10 02:41:21;;;;;;;10.60;5.50;;;;;;;9.00;100.00;100660.81;5051132;28;20078;-68
2022/05/10 02:43:58;;;;;;;8.75;5.25;;;;;;;8.31;100.00;100651.31;5049391;28;20422;-68
2022/05/10 02:46:24;;;;;;;9.18;5.70;;;;;;;8.17;100.00;100628.59;5050806;28;20029;-68
2022/05/10 02:48:50;;;;;;;8.90;5.70;;;;;;;8.70;100.00;100656.88;5051361;28;20035;-68
2022/05/10 02:51:17;;;;;;;10.88;5.63;;;;;;;8.66;100.00;100657.75;5051145;28;20119;-67
2022/05/10 02:53:43;;;;;;;8.13;5.13;;;;;;;8.82;100.00;100638.16;5050752;28;20025;-67
2022/05/10 02:56:12;;;;;;;11.55;7.13;;;;;;;8.81;100.00;100664.38;5051269;28;20052;-68
2022/05/10 02:59:01;;;;;;;14.40;6.82;;;;;;;9.13;100.00;100628.53;5049919;28;20080;-68
2022/05/10 03:01:32;;;;;;;16.67;7.43;;;;;;;8.91;100.00;100662.59;5051102;28;20033;-68
2022/05/10 03:03:57;;;;;;;9.88;5.65;;;;;;;8.44;100.00;100666.41;5050525;28;20052;-68
2022/05/10 03:06:27;;;;;;;14.80;6.15;;;;;;;8.63;100.00;100662.88;5050878;28;20037;-67
2022/05/10 03:08:53;;;;;;;13.88;6.07;;;;;;;8.04;100.00;100621.13;5050464;28;20031;-68
2022/05/10 03:11:19;;;;;;;8.88;5.93;;;;;;;8.56;100.00;100662.91;5052049;28;20449;-68
2022/05/10 03:13:47;;;;;;;10.02;5.93;;;;;;;8.66;100.00;100660.28;5056098;28;20465;-68
2022/05/10 03:16:14;;;;;;;11.57;6.30;;;;;;;8.33;100.00;100629.34;5050780;28;20142;-68
2022/05/10 03:18:39;;;;;;;11.77;6.57;;;;;;;8.47;100.00;100623.31;5050236;28;20044;-66
2022/05/10 03:21:05;;;;;;;19.50;7.25;;;;;;;8.35;100.00;100627.63;5051208;28;20501;-68
2022/05/10 03:23:31;;;;;;;14.00;6.53;;;;;;;8.77;100.00;100658.47;5050747;28;20033;-68
2022/05/10 03:25:57;;;;;;;14.90;6.30;;;;;;;8.62;100.00;100653.56;5050744;28;20025;-68
2022/05/10 03:28:24;;;;;;;11.15;5.68;;;;;;;8.69;100.00;100659.44;5050374;28;20090;-69
2022/05/10 03:30:50;;;;;;;10.20;5.72;;;;;;;8.79;100.00;100644.97;5050557;28;20028;-69
2022/05/10 03:33:16;;;;;;;8.70;5.50;;;;;;;8.83;100.00;100659.28;5048419;28;20402;-68
2022/05/10 03:35:42;;;;;;;8.13;5.03;;;;;;;9.12;100.00;100663.22;5050719;28;20108;-68
2022/05/10 03:38:07;;;;;;;5.57;4.90;;;;;;;8.99;100.00;100669.28;5050660;28;20116;-67
2022/05/10 03:40:33;;;;;;;9.88;5.97;;;;;;;8.91;100.00;100634.72;5050183;28;20033;-68
2022/05/10 03:42:59;;;;;;;10.25;5.90;;;;;;;8.72;100.00;100674.59;5049974;28;20082;-68
2022/05/10 03:45:24;;;;;;;8.32;5.82;;;;;;;8.41;100.00;100666.44;5049724;28;20033;-66
2022/05/10 03:47:51;;;;;;;9.43;6.25;;;;;;;8.50;100.00;100641.00;5070119;28;20478;-67
2022/05/10 03:50:19;;;;;;;12.15;6.80;;;;;;;8.63;100.00;100664.56;5068439;28;20039;-68
2022/05/10 03:52:45;;;;;;;12.23;7.43;;;;;;;8.48;100.00;100622.44;5068855;28;20024;-67
2022/05/10 03:55:14;;;;;;;12.55;6.40;;;;;;;8.72;100.00;100644.19;5070041;28;20482;-68
2022/05/10 03:57:39;;;;;;;9.38;6.00;;;;;;;8.69;100.00;100670.38;5059739;28;20120;-67
2022/05/10 04:00:10;;;;;;;7.30;5.82;;;;;;;9.14;100.00;100673.31;5050667;28;20056;-69
2022/05/10 04:02:36;;;;;;;7.97;5.50;;;;;;;9.12;100.00;100642.91;5049809;28;20236;-68
2022/05/10 04:05:02;;;;;;;16.38;7.72;;;;;;;9.26;100.00;100651.22;5050175;28;20115;-68
2022/05/10 04:07:28;;;;;;;14.13;7.32;;;;;;;9.25;100.00;100658.84;5049818;28;20020;-68
2022/05/10 04:09:54;;;;;;;12.32;7.13;;;;;;;9.31;100.00;100656.22;5047651;28;20487;-69
2022/05/10 04:12:19;;;;;;;9.93;6.35;;;;;;;9.58;100.00;100686.34;5050290;28;20413;-68
2022/05/10 04:14:44;;;;;;;12.68;6.80;;;;;;;9.94;100.00;100690.09;5049601;28;20108;-68
2022/05/10 04:17:10;;;;;;;11.93;7.18;;;;;;;9.85;100.00;100654.66;5050086;28;20112;-68
2022/05/10 04:19:35;;;;;;;13.18;6.93;;;;;;;9.98;100.00;100686.66;5049578;28;20112;-69
2022/05/10 04:22:01;;;;;;;14.05;7.55;;;;;;;10.24;100.00;100654.94;5065384;28;20521;-69
2022/05/10 04:24:26;;;;;;;26.60;12.85;;;;;;;9.88;100.00;100637.69;5058650;28;20490;-68
2022/05/10 04:26:52;;;;;;;19.73;9.10;;;;;;;9.85;100.00;100667.34;5069998;28;20064;-67
2022/05/10 04:29:18;;;;;;;16.15;7.97;;;;;;;10.08;100.00;100699.19;5070141;28;20028;-69
2022/05/10 04:31:43;;;;;;;14.45;7.65;;;;;;;9.71;100.00;100665.00;5069502;28;20036;-68
2022/05/10 04:34:10;;;;;;;16.13;8.80;;;;;;;10.16;100.00;100686.41;5070155;28;20383;-69
2022/05/10 04:36:35;;;;;;;21.13;8.60;;;;;;;10.35;100.00;100642.06;5068658;28;20102;-69
2022/05/10 04:39:01;;;;;;;19.08;9.32;;;;;;;10.98;100.00;100689.25;5045257;28;20487;-68
2022/05/10 04:41:29;;;;;;;14.43;7.32;;;;;;;11.13;100.00;100688.97;5047551;28;20036;-69
2022/05/10 04:44:02;;;;;;;14.32;7.43;;;;;;;11.45;100.00;100697.72;5068874;28;20048;-70
2022/05/10 04:46:30;;;;;;;15.88;8.23;;;;;;;11.20;100.00;100693.09;5052422;28;20047;-69
2022/05/10 04:48:56;;;;;;;13.32;8.73;;;;;;;11.75;100.00;100654.63;5052852;28;20040;-68
2022/05/10 04:51:22;;;;;;;15.88;9.30;;;;;;;11.95;100.00;100687.31;5053426;28;20112;-68
2022/05/10 04:53:47;;;;;;;15.43;8.82;;;;;;;11.76;100.00;100663.13;5052778;28;20135;-69
2022/05/10 04:56:13;;;;;;;13.45;8.25;;;;;;;12.27;100.00;100686.59;5051972;28;20032;-69
2022/05/10 04:58:39;;;;;;;20.52;8.30;;;;;;;12.32;100.00;100660.09;5053265;28;20025;-69
2022/05/10 05:01:09;;;;;;;14.88;8.13;;;;;;;12.47;100.00;100658.91;5068809;28;20031;-68
2022/05/10 05:03:35;;;;;;;14.90;7.90;;;;;;;12.59;100.00;100668.78;5072787;28;20056;-70
2022/05/10 05:06:02;;;;;;;15.65;7.97;;;;;;;12.50;100.00;100658.84;5073356;28;20079;-69
2022/05/10 05:08:28;;;;;;;21.25;9.77;;;;;;;12.62;100.00;100656.78;5073153;28;20417;-68
2022/05/10 05:10:56;;;;;;;17.92;7.93;;;;;;;12.53;100.00;100674.91;5073184;28;20033;-69
2022/05/10 05:13:23;;;;;;;10.18;7.13;;;;;;;12.14;100.00;100706.44;5072524;28;20038;-69
2022/05/10 05:15:48;;;;;;;13.85;6.40;;;;;;;12.35;100.00;100700.84;5071462;28;20025;-69
2022/05/10 05:18:14;;;;;;;12.57;5.68;;;;;;;11.56;100.00;100667.75;5054134;28;20467;-68
2022/05/10 05:20:41;;;;;;;14.48;5.90;;;;;;;13.47;100.00;100680.06;5064104;28;20024;-68
2022/05/10 05:23:08;;;;;;;10.70;6.25;;;;;;;14.02;100.00;100651.97;5068877;28;20037;-68
2022/05/10 05:25:39;;;;;;;10.65;5.93;;;;;;;13.96;100.00;100682.84;5052904;28;20032;-68
2022/05/10 05:28:05;;;;;;;11.45;6.07;;;;;;;14.23;100.00;100663.25;5052718;28;20037;-68
2022/05/10 05:30:32;;;;;;;8.02;5.63;;;;;;;14.50;100.00;100659.81;5052575;28;20029;-68
2022/05/10 05:32:57;;;;;;;10.73;5.47;;;;;;;14.92;100.00;100667.75;5067889;28;20044;-69
2022/05/10 05:35:23;;;;;;;8.40;5.20;;;;;;;14.60;100.00;100685.06;5052671;28;20025;-69
2022/05/10 05:37:48;;;;;;;7.65;5.13;;;;;;;14.00;100.00;100660.56;5052433;28;20033;-70
2022/05/10 05:40:16;;;;;;;8.65;4.97;;;;;;;14.75;100.00;100676.03;5051234;28;20037;-67
2022/05/10 05:42:42;;;;;;;11.50;5.32;;;;;;;14.93;100.00;100692.50;5057534;28;20032;-68
2022/05/10 05:45:10;;;;;;;8.63;5.32;;;;;;;14.76;100.00;100691.34;5064826;28;20029;-68
2022/05/10 05:47:36;;;;;;;7.28;4.97;;;;;;;14.64;100.00;100681.50;5072419;28;20051;-68
2022/05/10 05:50:03;;;;;;;11.95;5.43;;;;;;;14.55;100.00;100683.53;5072511;28;20029;-68
2022/05/10 05:52:29;;;;;;;10.52;5.32;;;;;;;14.72;100.00;100687.22;5070665;28;20142;-68
2022/05/10 05:54:54;;;;;;;11.05;4.95;;;;;;;14.88;100.00;100681.56;5071991;28;20486;-68
2022/05/10 05:57:21;;;;;;;8.05;5.22;;;;;;;14.84;100.00;100664.63;5072476;28;20031;-68
2022/05/10 05:59:47;;;;;;;8.82;5.18;;;;;;;15.12;100.00;100693.53;5072421;28;20037;-68
2022/05/10 06:02:15;;;;;;;7.32;4.07;;;;;;;15.50;100.00;100688.75;5071877;28;20044;-67
2022/05/10 06:04:41;;;;;;;11.23;4.47;;;;;;;15.65;100.00;100671.13;5072311;28;20029;-68
2022/05/10 06:07:09;;;;;;;7.78;3.90;;;;;;;15.63;100.00;100694.22;5071941;28;20107;-67
2022/05/10 06:09:38;;;;;;;5.75;3.78;;;;;;;15.46;100.00;100688.91;5071723;28;20409;-67
2022/05/10 06:12:05;;;;;;;9.57;4.28;;;;;;;15.50;100.00;100672.53;5071857;28;20456;-67
2022/05/10 06:14:31;;;;;;;8.73;4.18;;;;;;;15.45;100.00;100646.25;5071707;28;20029;-68
2022/05/10 06:16:57;;;;;;;7.28;4.30;;;;;;;15.81;100.00;100682.44;5072252;28;20470;-68
2022/05/10 06:19:23;;;;;;;6.15;4.00;;;;;;;16.17;100.00;100683.59;5062840;28;20033;-68
2022/05/10 06:21:50;;;;;;;9.20;3.72;;;;;;;16.54;100.00;100678.69;5066021;28;20064;-67
2022/05/10 06:24:15;;;;;;;9.27;4.00;;;;;;;16.21;100.00;100667.19;5071180;28;20033;-68
2022/05/10 06:26:40;;;;;;;9.60;4.32;;;;;;;16.69;100.00;100659.25;5071560;28;20078;-69
2022/05/10 06:29:06;;;;;;;6.85;4.03;;;;;;;16.52;100.00;100662.50;5071693;28;20032;-68
2022/05/10 06:31:31;;;;;;;4.97;3.72;;;;;;;16.72;100.00;100689.94;5071694;28;20020;-68
2022/05/10 06:33:57;;;;;;;7.43;3.97;;;;;;;17.04;100.00;100664.56;5071433;28;20103;-67
2022/05/10 06:36:22;;;;;;;13.52;3.67;;;;;;;17.49;100.00;100687.41;5071472;28;20036;-68
2022/05/10 06:38:47;;;;;;;11.60;3.35;;;;;;;17.30;100.00;100687.38;5071199;28;20020;-68
2022/05/10 06:41:13;;;;;;;6.22;3.30;;;;;;;18.00;100.00;100685.03;5071553;28;20036;-67
2022/05/10 06:43:38;;;;;;;9.93;3.40;;;;;;;17.52;98.76;100674.44;5069966;28;20464;-67
2022/05/10 06:46:20;;;;;;;6.93;3.40;;;;;;;18.25;98.68;100692.41;5071390;28;20063;-67
2022/05/10 06:48:45;;;;;;;;;;;;;;;17.77;98.71;100699.84;5071800;28;20579;-67
2022/05/10 06:51:12;;;;;;;9.52;3.20;;;;;;;18.02;100.00;100695.25;5071008;28;19912;-67
2022/05/10 06:53:38;;;;;;;11.00;3.63;;;;;;;18.30;94.76;100674.19;5071267;28;20533;-68
2022/05/10 06:56:05;;;;;;;7.85;3.35;;;;;;;18.82;92.54;100673.28;5071114;28;20107;-68
2022/05/10 06:58:31;;;;;;;7.25;3.40;;;;;;;18.01;91.27;100702.13;5071108;28;20028;-69
2022/05/10 07:00:57;;;;;;;12.00;3.50;;;;;;;18.68;91.31;100686.03;5071008;28;20029;-68
2022/05/10 07:03:32;;;;;;;12.90;3.72;;;;;;;18.71;91.09;100697.03;5069011;28;20047;-68
2022/05/10 07:05:59;;;;;;;12.57;4.40;;;;;;;18.40;90.53;100688.28;5064395;28;20455;-68
2022/05/10 07:08:25;;;;;;;9.95;3.50;;;;;;;19.16;86.66;100699.00;5050876;28;20427;-68
2022/05/10 07:10:50;;;;;;;13.77;3.70;;;;;;;18.78;89.58;100677.75;5050976;28;20537;-67
2022/05/10 07:13:22;;;;;;;9.57;3.95;;;;;;;19.07;88.65;100706.38;5066206;28;20086;-68
2022/05/10 07:15:47;;;;;;;18.17;3.63;;;;;;;19.25;88.48;100682.25;5050736;28;20078;-69
2022/05/10 07:18:13;;;;;;;13.50;4.10;;;;;;;19.26;86.88;100702.78;5050529;28;20029;-67
2022/05/10 07:20:39;;;;;;;11.32;3.28;;;;;;;19.31;88.54;100705.13;5052591;28;20067;-68
2022/05/10 07:23:05;;;;;;;17.52;4.13;;;;;;;20.04;83.48;100684.81;5062886;28;20058;-69
2022/05/10 07:25:31;;;;;;;11.65;3.40;;;;;;;18.94;83.99;100716.47;5069451;28;20391;-67
2022/05/10 07:27:57;;;;;;;14.27;3.25;;;;;;;19.00;89.99;100705.88;5070652;28;20032;-68
2022/05/10 07:30:24;;;;;;;13.27;3.40;;;;;;;20.00;85.41;100683.31;5070399;28;20028;-68
2022/05/10 07:32:50;;;;;;;17.35;3.88;;;;;;;20.37;80.99;100689.84;5070635;28;20083;-67
2022/05/10 07:35:17;;;;;;;11.98;3.97;;;;;;;20.28;82.20;100706.69;5070658;28;20054;-69
2022/05/10 07:37:43;;;;;;;12.80;3.83;;;;;;;20.55;75.92;100702.56;5070363;28;20024;-69
2022/05/10 07:40:11;;;;;;;9.95;3.08;;;;;;;19.88;79.81;100714.97;5070505;28;20394;-69
2022/05/10 07:42:39;;;;;;;9.38;3.20;;;;;;;19.14;82.11;100692.25;5069030;28;20028;-69
2022/05/10 07:45:07;;;;;;;6.20;2.97;;;;;;;20.10;79.26;100710.28;5070337;28;20109;-69
2022/05/10 07:47:32;;;;;;;7.60;2.70;;;;;;;21.23;75.55;100700.28;5070164;28;20405;-68
2022/05/10 07:49:58;;;;;;;6.18;2.35;;;;;;;20.01;72.25;100682.38;5070362;28;20489;-68
2022/05/10 07:52:24;;;;;;;10.25;2.78;;;;;;;21.77;70.41;100683.94;5070443;28;20371;-68
2022/05/10 07:54:49;;;;;;;8.32;2.85;;;;;;;20.96;71.02;100688.94;5070516;28;20466;-69
2022/05/10 07:57:14;;;;;;;4.85;2.60;;;;;;;21.29;68.27;100695.56;5068784;28;20465;-69
2022/05/10 07:59:40;;;;;;;7.53;2.60;;;;;;;22.05;67.76;100701.19;5070146;28;20096;-69
2022/05/10 08:02:06;;;;;;;5.95;2.60;;;;;;;21.43;68.16;100705.91;5068969;28;20045;-68
2022/05/10 08:04:32;;;;;;;7.20;2.67;;;;;;;21.61;66.29;100716.88;5070130;28;20486;-69
2022/05/10 08:06:58;;;;;;;9.02;2.60;;;;;;;21.41;66.13;100709.53;5070656;28;20025;-69
2022/05/10 08:09:23;;;;;;;4.65;2.38;;;;;;;21.75;65.52;100703.91;5069138;28;20143;-69
2022/05/10 08:11:49;;;;;;;9.02;2.70;;;;;;;21.83;65.21;100696.53;5069974;28;20473;-68
2022/05/10 08:14:14;;;;;;;6.15;2.40;;;;;;;22.52;63.45;100695.53;5070462;28;20025;-70
2022/05/10 08:16:40;;;;;;;7.57;2.40;;;;;;;22.02;63.82;100704.00;5073282;28;20406;-68
2022/05/10 08:19:05;;;;;;;7.93;2.50;;;;;;;21.77;65.62;100696.88;5073787;28;20105;-68
2022/05/10 08:21:31;;;;;;;5.18;2.60;;;;;;;22.19;64.34;100699.38;5074092;28;20422;-69
2022/05/10 08:23:56;;;;;;;6.32;2.30;;;;;;;22.87;62.64;100701.84;5073824;28;20403;-69
2022/05/10 08:26:23;;;;;;;9.10;2.70;;;;;;;23.16;63.34;100698.94;5073755;28;20419;-68
2022/05/10 08:28:49;;;;;;;4.70;2.15;;;;;;;23.31;59.87;100696.22;5073982;28;20028;-69
2022/05/10 08:31:15;;;;;;;7.07;2.45;;;;;;;23.39;58.51;100661.06;5073625;28;20037;-67
2022/05/10 08:33:42;;;;;;;5.22;2.40;;;;;;;22.57;59.95;100672.72;5073845;28;20029;-69
2022/05/10 08:36:09;;;;;;;4.78;2.15;;;;;;;21.89;61.19;100703.13;5074299;28;20036;-69
2022/05/10 08:38:36;;;;;;;5.65;2.45;;;;;;;22.65;61.76;100696.41;5073765;28;20040;-69
2022/05/10 08:41:08;;;;;;;9.98;2.85;;;;;;;21.96;56.68;100668.94;5073578;28;20064;-69
2022/05/10 08:43:46;;;;;;;4.35;2.35;;;;;;;22.44;54.09;100673.53;5073476;28;20418;-70
2022/05/10 08:46:18;;;;;;;7.93;3.78;;;;;;;22.72;57.57;100680.34;5073407;28;20081;-69
2022/05/10 08:48:50;;;;;;;2.00;1.70;;;;;;;22.14;52.54;100698.88;5073485;28;20485;-70
2022/05/10 08:51:16;;;;;;;4.80;2.20;;;;;;;22.97;52.79;100701.13;5073724;28;20136;-69
2022/05/10 08:53:42;;;;;;;3.58;1.70;;;;;;;21.81;48.13;100693.22;5073503;28;20546;-70
2022/05/10 08:56:30;;;;;;;7.50;2.88;;;;;;;22.94;49.69;100692.69;5073656;28;20055;-69
2022/05/10 08:59:06;;;;;;;4.00;1.95;;;;;;;22.18;49.33;100674.44;5063785;28;20395;-68
2022/05/10 09:01:56;;;;;;;5.03;2.20;;;;;;;22.81;50.09;100691.88;5071855;28;20036;-69
2022/05/10 09:04:21;;;;;;;3.00;1.73;;;;;;;22.76;49.50;100686.19;5071682;28;20146;-68
2022/05/10 09:06:47;;;;;;;5.00;1.48;;;;;;;23.28;48.14;100674.72;5072008;28;20032;-69
2022/05/10 09:09:12;;;;;;;11.15;1.83;;;;;;;23.32;44.91;100672.78;5072283;28;20033;-69
2022/05/10 09:11:59;;;;;;;5.82;1.70;;;;;;;22.44;46.74;100652.78;5071650;28;20032;-69
2022/05/10 09:14:37;;;;;;;5.50;1.88;;;;;;;23.06;44.99;100673.69;5072205;28;20483;-69
2022/05/10 09:17:04;;;;;;;3.15;1.40;;;;;;;22.63;39.97;100664.56;5072180;28;20036;-68
2022/05/10 09:19:38;;;;;;;2.28;1.30;;;;;;;22.89;41.99;100664.50;5071767;28;20536;-66
2022/05/10 09:22:30;;;;;;;4.20;1.77;;;;;;;22.29;42.64;100661.59;5072153;28;20068;-68
2022/05/10 09:24:58;;;;;;;3.50;2.00;;;;;;;23.35;42.34;100670.00;5072159;28;20053;-68
2022/05/10 09:27:32;;;;;;;9.02;2.50;;;;;;;22.38;43.70;100660.97;5071386;28;20029;-69
2022/05/10 09:29:58;;;;;;;6.15;2.30;;;;;;;23.08;42.39;100658.84;5072262;28;20035;-69
2022/05/10 09:35:14;;;;;;;4.15;2.50;;;;;;;23.86;42.41;100653.31;5072544;28;20516;-69
2022/05/10 09:38:06;;;;;;;4.15;2.35;;;;;;;23.78;43.47;100657.38;5072721;28;20466;-69
2022/05/10 09:40:34;;;;;;;;;;;;;;;24.04;42.97;100641.63;5073317;28;20525;-69
2022/05/10 09:43:15;;;;;;;6.60;3.00;;;;;;;23.59;42.75;100655.25;5072693;28;19971;-70
2022/05/10 09:45:41;;;;;;;4.75;2.45;;;;;;;24.56;42.71;100628.16;5072425;28;20035;-70
2022/05/10 09:48:16;;;;;;;5.40;2.67;;;;;;;23.97;42.60;100627.38;5072474;28;20070;-69
2022/05/10 09:50:52;;;;;;;7.28;3.00;;;;;;;23.46;42.60;100638.91;5072407;28;20032;-69
2022/05/10 09:53:27;;;;;;;4.68;2.38;;;;;;;23.51;41.62;100641.19;5070046;28;20104;-69
2022/05/10 09:56:03;;;;;;;5.40;2.58;;;;;;;23.30;42.20;100622.72;5054036;28;20123;-68
2022/05/10 09:58:32;;;;;;;8.68;2.50;;;;;;;24.23;40.56;100630.69;5052389;28;20084;-70
2022/05/10 10:01:00;;;;;;;5.45;2.85;;;;;;;24.16;41.21;100634.69;5052034;28;20037;-67
2022/05/10 10:03:32;;;;;;;4.75;2.88;;;;;;;24.22;40.96;100610.84;5051861;28;20049;-69
2022/05/10 10:06:21;;;;;;;5.85;3.10;;;;;;;24.52;40.92;100631.13;5052232;28;20029;-69
2022/05/10 10:08:55;;;;;;;7.00;3.13;;;;;;;24.24;41.70;100608.94;5051891;28;20087;-69
2022/05/10 10:11:23;;;;;;;7.43;3.13;;;;;;;23.33;41.51;100640.72;5051839;28;20037;-69
2022/05/10 10:13:58;;;;;;;8.50;3.22;;;;;;;25.17;39.82;100600.91;5052024;28;20028;-69
2022/05/10 10:16:28;;;;;;;9.60;3.05;;;;;;;25.20;40.58;100599.81;5067290;28;20029;-70
2022/05/10 10:19:08;;;;;;;12.38;2.83;;;;;;;25.58;39.66;100593.25;5051954;28;20029;-70
2022/05/10 10:21:56;;;;;;;7.22;2.70;;;;;;;24.06;39.93;100612.91;5051963;28;20039;-66
2022/05/10 10:24:36;;;;;;;7.88;3.28;;;;;;;24.41;39.75;100584.28;5051945;28;20111;-69
2022/05/10 10:27:08;;;;;;;7.63;3.15;;;;;;;24.55;39.39;100595.28;5080825;28;20043;-69
2022/05/10 10:29:44;;;;;;;8.48;3.40;;;;;;;23.87;40.82;100579.59;5071874;28;20035;-69
2022/05/10 10:32:29;;;;;;;5.25;2.30;;;;;;;24.82;38.52;100572.41;5071299;28;20153;-68
2022/05/10 10:35:13;;;;;;;6.15;2.65;;;;;;;24.88;39.39;100607.50;5071635;28;20071;-69
2022/05/10 10:37:56;;;;;;;6.10;2.28;;;;;;;24.88;38.39;100568.47;5071499;28;20035;-69
2022/05/10 10:41:03;;;;;;;5.85;2.67;;;;;;;24.87;39.51;100593.69;5071203;28;20042;-68
2022/05/10 10:43:43;;;;;;;7.85;3.92;;;;;;;24.71;40.06;100563.72;5067919;28;20048;-69
2022/05/10 10:46:46;;;;;;;8.23;2.70;;;;;;;25.08;38.99;100591.19;5071331;28;20410;-69
2022/05/10 10:49:19;;;;;;;5.22;2.10;;;;;;;24.37;39.83;100588.03;5052629;28;20068;-69
2022/05/10 10:51:45;;;;;;;3.25;2.05;;;;;;;24.52;39.32;100540.91;5071205;28;20031;-69
2022/05/10 10:54:17;;;;;;;3.05;1.70;;;;;;;24.97;37.84;100559.97;5071286;28;20542;-69
2022/05/10 10:57:05;;;;;;;4.85;1.65;;;;;;;25.64;38.10;100568.47;5071236;28;20490;-69
2022/05/10 11:00:10;;;;;;;4.18;1.90;;;;;;;24.93;36.83;100575.00;5051054;28;20059;-69
2022/05/10 11:03:00;;;;;;;2.60;1.38;;;;;;;25.30;36.99;100565.13;5051084;28;20049;-69
2022/05/10 11:05:55;;;;;;;2.97;1.52;;;;;;;24.97;36.67;100564.34;5054945;28;20116;-69
2022/05/10 11:08:24;;;;;;;4.15;1.40;;;;;;;25.12;36.63;100563.13;5064303;28;20033;-68
2022/05/10 11:10:55;;;;;;;3.53;1.70;;;;;;;25.09;36.53;100556.41;5070963;28;20055;-69
2022/05/10 11:13:38;;;;;;;;;;;;;;;25.32;35.67;100546.75;5071264;28;20028;-69
2022/05/10 11:16:44;;;;;;;4.93;1.50;;;;;;;24.18;36.24;100551.38;5069269;28;20328;-70
2022/05/10 11:19:18;;;;;;;3.95;1.27;;;;;;;25.36;36.63;100549.00;5070750;28;20480;-69
2022/05/10 11:21:57;;;;;;;4.72;1.65;;;;;;;25.88;35.68;100521.34;5070586;28;20036;-70
2022/05/10 11:24:29;;;;;;;4.10;1.27;;;;;;;26.20;35.42;100538.63;5070354;28;20117;-68
2022/05/10 11:27:17;;;;;;;3.83;1.30;;;;;;;25.04;36.26;100540.31;5070642;28;20031;-69
2022/05/10 11:30:04;;;;;;;3.30;1.13;;;;;;;24.65;35.67;100536.44;5070975;28;20032;-69
2022/05/10 11:32:59;;;;;;;2.83;1.27;;;;;;;24.81;34.79;100528.28;5070634;28;20033;-69
2022/05/10 11:35:33;;;;;;;3.92;1.33;;;;;;;25.87;36.22;100525.72;5070594;28;20070;-70
2022/05/10 11:38:20;;;;;;;3.30;1.25;;;;;;;25.12;36.45;100522.31;5070754;28;20032;-69
2022/05/10 11:40:45;;;;;;;5.18;1.33;;;;;;;24.84;35.79;100522.84;5069097;28;20135;-69
2022/05/10 11:43:23;;;;;;;5.18;1.08;;;;;;;24.91;35.64;100511.84;5070102;28;20537;-68